createdAt,value
2023-02-22T00:01:47.455Z,6.38
2023-02-22T00:04:19.027Z,6.38
2023-02-22T00:06:46.046Z,6.35
2023-02-22T00:09:13.764Z,6.33
2023-02-22T00:11:46.601Z,6.31
2023-02-22T00:14:13.202Z,6.32
2023-02-22T00:16:39.770Z,6.34
2023-02-22T00:19:07.223Z,6.33
2023-02-22T00:21:33.865Z,6.32
2023-02-22T00:24:00.399Z,6.29
2023-02-22T00:26:26.943Z,6.31
2023-02-22T00:28:54.342Z,6.31
2023-02-22T00:31:21.699Z,6.33
2023-02-22T00:33:48.440Z,6.33
2023-02-22T00:36:15.369Z,6.32
2023-02-22T00:38:42.184Z,6.32
2023-02-22T00:41:09.453Z,6.31
2023-02-22T00:43:36.012Z,6.31
2023-02-22T00:46:03.609Z,6.30
2023-02-22T00:48:30.620Z,6.28
2023-02-22T00:50:57.470Z,6.26
2023-02-22T00:53:25.368Z,6.27
2023-02-22T00:55:52.405Z,6.24
2023-02-22T00:58:18.912Z,6.24
2023-02-22T01:00:46.100Z,6.24
2023-02-22T01:03:15.075Z,6.24
2023-02-22T01:05:42.647Z,6.22
2023-02-22T01:08:11.422Z,6.23
2023-02-22T01:10:38.998Z,6.21
2023-02-22T01:13:09.408Z,6.22
2023-02-22T01:15:39.557Z,6.25
2023-02-22T01:18:06.438Z,6.23
2023-02-22T01:20:33.638Z,6.22
2023-02-22T01:23:03.714Z,6.20
2023-02-22T01:25:31.398Z,6.19
2023-02-22T01:28:00.009Z,6.17
2023-02-22T01:30:30.111Z,6.17
2023-02-22T01:32:57.159Z,6.16
2023-02-22T01:35:27.954Z,6.16
2023-02-22T01:37:55.250Z,6.15
2023-02-22T01:40:25.886Z,6.13
2023-02-22T01:42:54.795Z,6.14
2023-02-22T01:45:30.506Z,6.14
2023-02-22T01:48:04.240Z,6.10
2023-02-22T01:50:35.484Z,6.08
2023-02-22T01:53:03.038Z,6.09
2023-02-22T01:55:29.554Z,6.07
2023-02-22T01:57:56.145Z,6.06
2023-02-22T02:00:24.386Z,6.06
2023-02-22T02:02:59.100Z,6.07
2023-02-22T02:05:31.514Z,6.06
2023-02-22T02:08:03.175Z,6.06
2023-02-22T02:10:29.893Z,6.00
2023-02-22T02:12:58.435Z,5.95
2023-02-22T02:15:31.856Z,5.93
2023-02-22T02:18:02.550Z,5.90
2023-02-22T02:20:50.060Z,5.90
2023-02-22T02:23:16.587Z,5.88
2023-02-22T02:26:11.986Z,5.88
2023-02-22T02:29:02.910Z,5.83
2023-02-22T02:32:01.723Z,5.75
2023-02-22T02:34:37.413Z,5.71
2023-02-22T02:37:19.074Z,5.72
2023-02-22T02:40:02.503Z,5.71
2023-02-22T02:42:36.514Z,5.69
2023-02-22T02:45:11.666Z,5.65
2023-02-22T02:47:44.244Z,5.65
2023-02-22T02:50:23.364Z,5.62
2023-02-22T02:52:55.454Z,5.62
2023-02-22T02:55:22.637Z,5.61
2023-02-22T02:57:49.246Z,5.58
2023-02-22T03:00:24.472Z,5.53
2023-02-22T03:02:56.531Z,5.50
2023-02-22T03:05:44.380Z,5.48
2023-02-22T03:08:50.423Z,5.43
2023-02-22T03:11:21.538Z,5.36
2023-02-22T03:14:07.940Z,5.32
2023-02-22T03:16:51.546Z,5.30
2023-02-22T03:19:34.802Z,5.27
2023-02-22T03:22:01.511Z,5.23
2023-02-22T03:24:33.316Z,5.21
2023-02-22T03:27:09.422Z,5.18
2023-02-22T03:29:40.702Z,5.15
2023-02-22T03:32:11.636Z,5.12
2023-02-22T03:34:43.977Z,5.10
2023-02-22T03:37:20.266Z,5.06
2023-02-22T03:39:49.568Z,5.02
2023-02-22T03:42:23.310Z,5.04
2023-02-22T03:44:51.934Z,5.05
2023-02-22T03:47:25.332Z,5.02
2023-02-22T03:49:55.104Z,5.02
2023-02-22T03:52:25.221Z,5.02
2023-02-22T03:54:55.802Z,5.02
2023-02-22T03:57:28.458Z,4.99
2023-02-22T03:59:55.447Z,4.95
2023-02-22T04:02:23.816Z,4.94
2023-02-22T04:04:50.652Z,4.93
2023-02-22T04:07:17.816Z,4.92
2023-02-22T04:09:45.265Z,4.92
2023-02-22T04:12:11.702Z,4.86
2023-02-22T04:14:38.234Z,4.85
2023-02-22T04:17:04.726Z,4.85
2023-02-22T04:19:31.295Z,4.85
2023-02-22T04:21:57.761Z,4.88
2023-02-22T04:24:24.256Z,4.90
2023-02-22T04:26:50.972Z,4.92
2023-02-22T04:29:17.514Z,4.94
2023-02-22T04:31:44.398Z,4.95
2023-02-22T04:34:10.992Z,4.95
2023-02-22T04:36:37.527Z,4.97
2023-02-22T04:39:05.292Z,4.93
2023-02-22T04:41:31.855Z,4.91
2023-02-22T04:43:58.317Z,4.90
2023-02-22T04:46:24.908Z,4.90
2023-02-22T04:48:51.513Z,4.89
2023-02-22T04:51:18.357Z,4.90
2023-02-22T04:53:44.944Z,4.90
2023-02-22T04:56:11.833Z,4.91
2023-02-22T04:58:38.327Z,4.86
2023-02-22T05:01:05.084Z,4.86
2023-02-22T05:03:31.842Z,4.85
2023-02-22T05:05:58.424Z,4.84
2023-02-22T05:08:24.875Z,4.87
2023-02-22T05:10:51.347Z,4.86
2023-02-22T05:13:18.356Z,4.84
2023-02-22T05:15:45.057Z,4.84
2023-02-22T05:18:11.602Z,4.83
2023-02-22T05:20:38.443Z,4.83
2023-02-22T05:23:05.704Z,4.79
2023-02-22T05:25:33.584Z,4.76
2023-02-22T05:28:10.447Z,4.79
2023-02-22T05:30:39.676Z,4.77
2023-02-22T05:33:07.450Z,4.79
2023-02-22T05:35:34.648Z,4.79
2023-02-22T05:38:03.238Z,4.77
2023-02-22T05:40:30.578Z,4.79
2023-02-22T05:42:58.039Z,4.82
2023-02-22T05:45:26.955Z,4.83
2023-02-22T05:47:56.357Z,4.80
2023-02-22T05:50:23.104Z,4.79
2023-02-22T05:52:49.724Z,4.79
2023-02-22T05:55:18.970Z,4.83
2023-02-22T05:57:46.164Z,4.85
2023-02-22T06:00:23.321Z,4.86
2023-02-22T06:03:06.178Z,4.90
2023-02-22T06:05:33.070Z,4.88
2023-02-22T06:08:00.064Z,4.89
2023-02-22T06:10:27.343Z,4.85
2023-02-22T06:12:54.883Z,4.85
2023-02-22T06:15:23.574Z,4.84
2023-02-22T06:17:50.770Z,4.85
2023-02-22T06:20:21.148Z,4.89
2023-02-22T06:22:48.797Z,4.91
2023-02-22T06:25:19.051Z,4.91
2023-02-22T06:27:45.635Z,4.90
2023-02-22T06:30:13.659Z,4.90
2023-02-22T06:32:40.303Z,4.92
2023-02-22T06:35:07.744Z,4.89
2023-02-22T06:37:34.445Z,4.89
2023-02-22T06:40:05.430Z,4.85
2023-02-22T06:42:32.172Z,4.86
2023-02-22T06:44:58.695Z,4.84
2023-02-22T06:47:25.258Z,4.84
2023-02-22T06:49:56.924Z,4.83
2023-02-22T06:52:23.987Z,4.76
2023-02-22T06:54:50.867Z,4.75
2023-02-22T06:57:17.482Z,4.76
2023-02-22T06:59:44.107Z,4.78
2023-02-22T07:02:12.478Z,4.80
2023-02-22T07:04:40.992Z,4.82
2023-02-22T07:07:09.069Z,4.84
2023-02-22T07:09:35.629Z,4.85
2023-02-22T07:12:02.071Z,4.90
2023-02-22T07:14:28.677Z,4.90
2023-02-22T07:16:55.210Z,4.82
2023-02-22T07:19:22.048Z,4.85
2023-02-22T07:21:48.729Z,4.88
2023-02-22T07:24:15.280Z,4.86
2023-02-22T07:26:42.496Z,4.89
2023-02-22T07:29:11.331Z,4.92
2023-02-22T07:31:42.215Z,4.94
2023-02-22T07:34:08.749Z,4.94
2023-02-22T07:36:35.307Z,4.96
2023-02-22T07:39:01.820Z,4.92
2023-02-22T07:41:28.342Z,4.87
2023-02-22T07:43:54.832Z,4.87
2023-02-22T07:46:21.357Z,4.91
2023-02-22T07:48:47.852Z,4.92
2023-02-22T07:51:18.226Z,4.99
2023-02-22T07:53:45.257Z,5.01
2023-02-22T07:56:11.906Z,5.05
2023-02-22T07:58:38.342Z,5.13
2023-02-22T08:01:05.088Z,5.19
2023-02-22T08:03:38.088Z,5.20
2023-02-22T08:06:06.592Z,5.22
2023-02-22T08:08:34.932Z,5.19
2023-02-22T08:11:01.771Z,5.24
2023-02-22T08:13:28.306Z,5.28
2023-02-22T08:15:55.252Z,5.30
2023-02-22T08:18:23.528Z,5.34
2023-02-22T08:20:52.124Z,5.33
2023-02-22T08:23:20.666Z,5.33
2023-02-22T08:25:47.287Z,5.41
2023-02-22T08:28:17.108Z,5.45
2023-02-22T08:30:44.083Z,5.48
2023-02-22T08:33:14.460Z,5.51
2023-02-22T08:35:41.773Z,5.56
2023-02-22T08:38:15.232Z,5.60
2023-02-22T08:40:41.830Z,5.65
2023-02-22T08:43:08.329Z,5.69
2023-02-22T08:45:35.198Z,5.73
2023-02-22T08:48:01.959Z,5.75
2023-02-22T08:50:32.081Z,5.76
2023-02-22T08:53:00.388Z,5.80
2023-02-22T08:55:30.516Z,5.84
2023-02-22T08:57:57.054Z,5.86
2023-02-22T09:00:25.344Z,5.89
2023-02-22T09:02:53.077Z,5.91
2023-02-22T09:05:20.140Z,5.96
2023-02-22T09:07:47.002Z,6.06
2023-02-22T09:10:19.638Z,6.08
2023-02-22T09:12:46.160Z,6.14
2023-02-22T09:15:13.097Z,6.22
2023-02-22T09:17:40.719Z,6.27
2023-02-22T09:20:08.714Z,6.36
2023-02-22T09:22:35.215Z,6.45
2023-02-22T09:25:11.390Z,6.50
2023-02-22T09:27:43.704Z,6.56
2023-02-22T09:30:18.515Z,6.65
2023-02-22T09:32:45.400Z,6.68
2023-02-22T09:35:13.051Z,6.74
2023-02-22T09:37:39.875Z,6.77
2023-02-22T09:40:09.992Z,6.80
2023-02-22T09:42:50.416Z,6.80
2023-02-22T09:45:28.120Z,6.78
2023-02-22T09:48:15.175Z,6.77
2023-02-22T09:50:51.677Z,6.90
2023-02-22T09:53:29.918Z,7.03
2023-02-22T09:56:18.187Z,7.14
2023-02-22T09:58:47.905Z,7.12
2023-02-22T10:01:14.567Z,7.09
2023-02-22T10:03:54.969Z,7.20
2023-02-22T10:06:25.162Z,7.37
2023-02-22T10:08:56.386Z,7.42
2023-02-22T10:11:49.625Z,7.48
2023-02-22T10:14:34.271Z,7.58
2023-02-22T10:17:06.354Z,7.71
2023-02-22T10:19:54.883Z,7.79
2023-02-22T10:22:56.751Z,7.95
2023-02-22T10:25:28.628Z,8.02
2023-02-22T10:28:05.998Z,8.15
2023-02-22T10:30:41.939Z,8.32
2023-02-22T10:33:12.465Z,8.44
2023-02-22T10:35:41.420Z,8.51
2023-02-22T10:38:26.738Z,8.55
2023-02-22T10:40:59.462Z,8.67
2023-02-22T10:43:26.096Z,8.77
2023-02-22T10:46:01.336Z,8.85
2023-02-22T10:48:31.458Z,8.89
2023-02-22T10:51:05.684Z,8.96
2023-02-22T10:53:34.424Z,9.06
2023-02-22T10:56:09.728Z,9.16
2023-02-22T10:58:41.738Z,9.18
2023-02-22T11:01:20.536Z,9.16
2023-02-22T11:04:07.250Z,9.19
2023-02-22T11:06:35.331Z,9.21
2023-02-22T11:09:15.426Z,9.27
2023-02-22T11:11:49.438Z,9.28
2023-02-22T11:14:30.291Z,9.39
2023-02-22T11:16:58.679Z,9.46
2023-02-22T11:19:30.135Z,9.53
2023-02-22T11:22:10.538Z,9.62
2023-02-22T11:24:49.181Z,9.65
2023-02-22T11:27:41.310Z,9.66
2023-02-22T11:30:12.105Z,9.62
2023-02-22T11:32:46.487Z,9.67
2023-02-22T11:35:32.715Z,9.70
2023-02-22T11:38:17.681Z,9.73
2023-02-22T11:40:45.343Z,9.74
2023-02-22T11:43:16.421Z,9.78
2023-02-22T11:46:03.636Z,9.80
2023-02-22T11:48:34.776Z,9.82
2023-02-22T11:51:25.531Z,9.86
2023-02-22T11:54:25.511Z,9.88
2023-02-22T11:56:55.710Z,9.84
2023-02-22T11:59:43.211Z,9.82
2023-02-22T12:02:51.894Z,9.80
2023-02-22T12:05:31.149Z,9.69
2023-02-22T12:08:19.013Z,9.55
2023-02-22T12:11:06.359Z,9.48
2023-02-22T12:13:41.704Z,9.38
2023-02-22T12:16:33.277Z,9.31
2023-02-22T12:19:09.084Z,9.31
2023-02-22T12:21:40.737Z,9.30
2023-02-22T12:24:16.386Z,9.30
2023-02-22T12:26:50.790Z,9.32
2023-02-22T12:29:29.371Z,9.40
2023-02-22T12:32:12.256Z,9.47
2023-02-22T12:34:45.795Z,9.50
2023-02-22T12:37:25.200Z,9.61
2023-02-22T12:39:54.585Z,9.72
2023-02-22T12:42:29.297Z,9.80
2023-02-22T12:45:05.771Z,9.97
2023-02-22T12:47:45.993Z,10.07
2023-02-22T12:50:24.028Z,10.15
2023-02-22T12:52:57.853Z,10.21
2023-02-22T12:55:28.932Z,10.26
2023-02-22T12:58:06.538Z,10.25
2023-02-22T13:00:48.406Z,10.31
2023-02-22T13:03:14.834Z,10.30
2023-02-22T13:05:41.590Z,10.34
2023-02-22T13:08:34.317Z,10.34
2023-02-22T13:11:26.215Z,10.32
2023-02-22T13:14:12.127Z,10.34
2023-02-22T13:16:38.577Z,10.39
2023-02-22T13:19:25.192Z,10.43
2023-02-22T13:21:59.763Z,10.45
2023-02-22T13:24:54.160Z,10.40
2023-02-22T13:27:22.846Z,10.38
2023-02-22T13:29:55.311Z,10.37
2023-02-22T13:32:40.032Z,10.36
2023-02-22T13:35:09.159Z,10.39
2023-02-22T13:38:03.128Z,10.41
2023-02-22T13:40:29.692Z,10.42
2023-02-22T13:43:09.333Z,10.44
2023-02-22T13:46:17.120Z,10.48
2023-02-22T13:48:55.241Z,10.46
2023-02-22T13:51:36.657Z,10.48
2023-02-22T13:54:09.171Z,10.44
2023-02-22T13:56:36.182Z,10.42
2023-02-22T13:59:04.749Z,10.34
2023-02-22T14:01:41.443Z,10.28
2023-02-22T14:04:26.816Z,10.30
2023-02-22T14:07:03.337Z,10.33
2023-02-22T14:09:45.489Z,10.31
2023-02-22T14:12:30.490Z,10.28
2023-02-22T14:15:28.749Z,10.24
2023-02-22T14:18:01.950Z,10.20
2023-02-22T14:20:31.177Z,10.18
2023-02-22T14:23:18.768Z,10.16
2023-02-22T14:25:45.382Z,10.14
2023-02-22T14:28:52.247Z,10.10
2023-02-22T14:31:35.620Z,10.05
2023-02-22T14:34:15.357Z,10.03
2023-02-22T14:36:54.813Z,9.99
2023-02-22T14:39:51.870Z,9.97
2023-02-22T14:42:27.202Z,9.98
2023-02-22T14:44:56.596Z,10.06
2023-02-22T14:47:29.333Z,10.11
2023-02-22T14:50:14.920Z,10.10
2023-02-22T14:52:43.371Z,10.11
2023-02-22T14:55:22.270Z,10.12
2023-02-22T14:58:10.365Z,10.16
2023-02-22T15:00:45.933Z,10.16
2023-02-22T15:03:34.501Z,10.10
2023-02-22T15:06:17.514Z,10.05
2023-02-22T15:08:48.777Z,10.00
2023-02-22T15:11:26.547Z,9.99
2023-02-22T15:13:55.212Z,9.96
2023-02-22T15:16:23.333Z,9.93
2023-02-22T15:18:56.536Z,9.88
2023-02-22T15:21:25.873Z,9.82
2023-02-22T15:23:59.395Z,9.82
2023-02-22T15:26:35.366Z,9.84
2023-02-22T15:29:23.518Z,9.83
2023-02-22T15:31:51.188Z,9.78
2023-02-22T15:34:27.234Z,9.74
2023-02-22T15:36:56.346Z,9.71
2023-02-22T15:39:33.251Z,9.71
2023-02-22T15:42:23.669Z,9.67
2023-02-22T15:44:54.604Z,9.58
2023-02-22T15:47:27.716Z,9.57
2023-02-22T15:50:21.565Z,9.51
2023-02-22T15:52:58.900Z,9.46
2023-02-22T15:55:38.886Z,9.42
2023-02-22T15:58:31.449Z,9.41
2023-02-22T16:01:02.544Z,9.39
2023-02-22T16:03:45.457Z,9.33
2023-02-22T16:06:28.774Z,9.30
2023-02-22T16:08:58.818Z,9.30
2023-02-22T16:11:34.829Z,9.26
2023-02-22T16:14:28.408Z,9.22
2023-02-22T16:17:25.666Z,9.15
2023-02-22T16:19:53.369Z,9.10
2023-02-22T16:22:28.926Z,9.06
2023-02-22T16:25:19.308Z,9.00
2023-02-22T16:27:49.946Z,8.98
2023-02-22T16:30:35.241Z,8.92
2023-02-22T16:33:13.447Z,8.87
2023-02-22T16:35:40.546Z,8.85
2023-02-22T16:38:16.718Z,8.73
2023-02-22T16:41:01.408Z,8.64
2023-02-22T16:43:32.653Z,8.58
2023-02-22T16:46:03.647Z,8.54
2023-02-22T16:48:38.120Z,8.50
2023-02-22T16:51:21.440Z,8.48
2023-02-22T16:53:49.269Z,8.46
2023-02-22T16:56:19.285Z,8.43
2023-02-22T16:58:49.801Z,8.40
2023-02-22T17:01:20.231Z,8.40
2023-02-22T17:03:47.843Z,8.35
2023-02-22T17:06:14.380Z,8.33
2023-02-22T17:08:41.945Z,8.28
2023-02-22T17:11:11.179Z,8.24
2023-02-22T17:13:38.418Z,8.20
2023-02-22T17:16:05.579Z,8.19
2023-02-22T17:18:34.224Z,8.16
2023-02-22T17:21:02.883Z,8.13
2023-02-22T17:23:29.560Z,8.15
2023-02-22T17:26:03.369Z,8.15
2023-02-22T17:28:31.325Z,8.16
2023-02-22T17:31:02.695Z,8.15
2023-02-22T17:33:33.222Z,8.15
2023-02-22T17:36:02.059Z,8.17
2023-02-22T17:38:30.394Z,8.17
2023-02-22T17:40:58.745Z,8.17
2023-02-22T17:43:25.882Z,8.18
2023-02-22T17:45:53.841Z,8.16
2023-02-22T17:48:23.795Z,8.17
2023-02-22T17:50:50.902Z,8.16
2023-02-22T17:53:21.606Z,8.16
2023-02-22T17:55:48.850Z,8.17
2023-02-22T17:58:15.851Z,8.17
2023-02-22T18:00:46.692Z,8.16
2023-02-22T18:03:16.400Z,8.17
2023-02-22T18:05:48.462Z,8.18
2023-02-22T18:08:15.527Z,8.16
2023-02-22T18:10:43.758Z,8.16
2023-02-22T18:13:16.631Z,8.17
2023-02-22T18:15:43.423Z,8.18
2023-02-22T18:18:10.001Z,8.14
2023-02-22T18:20:39.660Z,8.14
2023-02-22T18:23:07.946Z,8.15
2023-02-22T18:25:36.220Z,8.15
2023-02-22T18:28:07.930Z,8.16
2023-02-22T18:30:36.811Z,8.14
2023-02-22T18:33:04.250Z,8.16
2023-02-22T18:35:31.124Z,8.15
2023-02-22T18:37:57.638Z,8.16
2023-02-22T18:40:24.159Z,8.14
2023-02-22T18:42:50.661Z,8.15
2023-02-22T18:45:17.472Z,8.13
2023-02-22T18:47:47.521Z,8.15
2023-02-22T18:50:17.136Z,8.16
2023-02-22T18:52:45.829Z,8.16
2023-02-22T18:55:21.406Z,8.16
2023-02-22T18:57:50.780Z,8.16
2023-02-22T19:00:24.196Z,8.15
2023-02-22T19:02:52.034Z,8.14
2023-02-22T19:05:18.592Z,8.14
2023-02-22T19:07:45.387Z,8.12
2023-02-22T19:10:11.937Z,8.10
2023-02-22T19:12:38.583Z,8.07
2023-02-22T19:15:05.443Z,8.09
2023-02-22T19:17:32.626Z,8.08
2023-02-22T19:20:05.717Z,8.04
2023-02-22T19:22:32.809Z,8.02
2023-02-22T19:25:01.171Z,8.00
2023-02-22T19:27:31.318Z,8.00
2023-02-22T19:29:57.981Z,8.00
2023-02-22T19:32:25.068Z,7.98
2023-02-22T19:34:53.427Z,7.99
2023-02-22T19:37:23.014Z,7.99
2023-02-22T19:39:49.459Z,7.99
2023-02-22T19:42:15.956Z,7.98
2023-02-22T19:44:42.461Z,7.98
2023-02-22T19:47:10.112Z,7.96
2023-02-22T19:49:38.817Z,7.97
2023-02-22T19:52:06.667Z,7.98
2023-02-22T19:54:36.329Z,7.96
2023-02-22T19:57:06.331Z,7.98
2023-02-22T19:59:32.880Z,7.96
2023-02-22T20:02:01.919Z,7.96
2023-02-22T20:04:30.763Z,7.93
2023-02-22T20:06:57.633Z,7.92
2023-02-22T20:09:45.957Z,7.89
2023-02-22T20:12:13.098Z,7.88
2023-02-22T20:14:41.646Z,7.87
2023-02-22T20:17:12.487Z,7.85
2023-02-22T20:19:43.183Z,7.84
2023-02-22T20:22:10.314Z,7.82
2023-02-22T20:24:36.808Z,7.80
2023-02-22T20:27:03.483Z,7.82
2023-02-22T20:29:30.671Z,7.83
2023-02-22T20:32:02.481Z,7.81
2023-02-22T20:34:33.389Z,7.80
2023-02-22T20:37:01.123Z,7.78
2023-02-22T20:39:28.037Z,7.75
2023-02-22T20:41:54.654Z,7.76
2023-02-22T20:44:21.514Z,7.76
2023-02-22T20:46:48.814Z,7.76
2023-02-22T20:49:18.299Z,7.75
2023-02-22T20:51:48.099Z,7.74
2023-02-22T20:54:15.295Z,7.74
2023-02-22T20:56:45.225Z,7.75
2023-02-22T20:59:17.638Z,7.74
2023-02-22T21:01:44.641Z,7.73
2023-02-22T21:04:13.482Z,7.73
2023-02-22T21:06:40.807Z,7.73
2023-02-22T21:09:12.157Z,7.70
2023-02-22T21:11:40.073Z,7.68
2023-02-22T21:14:07.099Z,7.67
2023-02-22T21:16:35.926Z,7.67
2023-02-22T21:19:06.143Z,7.67
2023-02-22T21:21:33.027Z,7.66
2023-02-22T21:24:01.816Z,7.67
2023-02-22T21:26:31.661Z,7.65
2023-02-22T21:29:00.673Z,7.65
2023-02-22T21:31:28.106Z,7.65
2023-02-22T21:33:56.790Z,7.67
2023-02-22T21:36:27.256Z,7.66
2023-02-22T21:38:56.724Z,7.64
2023-02-22T21:41:27.614Z,7.62
2023-02-22T21:43:55.632Z,7.59
2023-02-22T21:46:22.898Z,7.60
2023-02-22T21:48:51.174Z,7.58
2023-02-22T21:51:21.939Z,7.55
2023-02-22T21:53:52.350Z,7.55
2023-02-22T21:56:23.761Z,7.56
2023-02-22T21:58:59.046Z,7.56
2023-02-22T22:01:35.679Z,7.54
2023-02-22T22:04:03.828Z,7.56
2023-02-22T22:06:33.024Z,7.56
2023-02-22T22:09:05.000Z,7.57
2023-02-22T22:11:31.636Z,7.52
2023-02-22T22:13:59.880Z,7.54
2023-02-22T22:16:29.849Z,7.52
2023-02-22T22:18:56.754Z,7.53
2023-02-22T22:21:24.272Z,7.51
2023-02-22T22:23:54.355Z,7.55
2023-02-22T22:26:22.062Z,7.54
2023-02-22T22:28:54.392Z,7.52
2023-02-22T22:31:23.740Z,7.53
2023-02-22T22:33:50.791Z,7.52
2023-02-22T22:36:19.486Z,7.49
2023-02-22T22:38:48.814Z,7.48
2023-02-22T22:41:19.250Z,7.51
2023-02-22T22:43:46.682Z,7.50
2023-02-22T22:46:16.768Z,7.48
2023-02-22T22:48:47.045Z,7.46
2023-02-22T22:51:18.030Z,7.45
2023-02-22T22:53:46.069Z,7.45
2023-02-22T22:56:17.623Z,7.44
2023-02-22T22:58:47.988Z,7.44
2023-02-22T23:01:19.578Z,7.45
2023-02-22T23:03:55.554Z,7.44
2023-02-22T23:06:27.218Z,7.42
2023-02-22T23:09:27.505Z,7.42
2023-02-22T23:12:08.762Z,7.43
2023-02-22T23:14:38.320Z,7.42
2023-02-22T23:17:14.034Z,7.44
2023-02-22T23:19:41.358Z,7.43
2023-02-22T23:22:09.153Z,7.43
2023-02-22T23:24:36.784Z,7.44
2023-02-22T23:27:10.725Z,7.44
2023-02-22T23:29:39.600Z,7.44
2023-02-22T23:32:07.439Z,7.44
2023-02-22T23:34:35.947Z,7.41
2023-02-22T23:37:03.199Z,7.40
2023-02-22T23:39:29.714Z,7.39
2023-02-22T23:42:00.804Z,7.39
2023-02-22T23:44:28.196Z,7.38
2023-02-22T23:46:55.873Z,7.39
2023-02-22T23:49:25.375Z,7.38
2023-02-22T23:51:52.650Z,7.38
2023-02-22T23:54:20.882Z,7.38
2023-02-22T23:57:02.442Z,7.36
2023-02-22T23:59:30.318Z,7.36
